createdAt,value
2022-11-05T00:02:43.693Z,6.75
2022-11-05T00:05:30.545Z,7.00
2022-11-05T00:08:18.631Z,6.82
2022-11-05T00:10:46.739Z,6.63
2022-11-05T00:13:32.658Z,6.30
2022-11-05T00:16:19.215Z,6.65
2022-11-05T00:19:06.242Z,6.10
2022-11-05T00:21:51.323Z,5.97
2022-11-05T00:24:36.972Z,5.72
2022-11-05T00:27:05.303Z,5.53
2022-11-05T00:29:33.190Z,5.78
2022-11-05T00:32:02.800Z,5.60
2022-11-05T00:34:30.657Z,5.93
2022-11-05T00:36:58.485Z,5.38
2022-11-05T00:39:26.346Z,5.30
2022-11-05T00:42:08.260Z,4.57
2022-11-05T00:44:52.571Z,5.18
2022-11-05T00:47:39.385Z,4.78
2022-11-05T00:50:07.734Z,4.57
2022-11-05T00:52:53.065Z,4.50
2022-11-05T00:55:21.049Z,5.15
2022-11-05T00:57:48.885Z,5.10
2022-11-05T01:00:17.235Z,4.72
2022-11-05T01:02:46.856Z,4.63
2022-11-05T01:05:15.188Z,5.28
2022-11-05T01:07:43.128Z,5.32
2022-11-05T01:10:11.144Z,5.15
2022-11-05T01:12:39.011Z,5.03
2022-11-05T01:15:08.074Z,5.30
2022-11-05T01:17:35.948Z,5.32
2022-11-05T01:20:06.015Z,4.93
2022-11-05T01:22:33.857Z,5.45
2022-11-05T01:25:01.713Z,5.63
2022-11-05T01:27:29.550Z,5.22
2022-11-05T01:29:57.596Z,5.28
2022-11-05T01:32:25.387Z,5.55
2022-11-05T01:34:53.302Z,5.13
2022-11-05T01:37:22.642Z,5.55
2022-11-05T01:39:50.566Z,5.70
2022-11-05T01:42:22.825Z,6.85
2022-11-05T01:44:58.802Z,6.18
2022-11-05T01:47:32.449Z,5.32
2022-11-05T01:50:03.673Z,6.20
2022-11-05T01:52:36.148Z,5.57
2022-11-05T01:55:05.816Z,6.20
2022-11-05T01:57:34.185Z,5.32
2022-11-05T02:00:02.844Z,6.20
2022-11-05T02:02:41.066Z,5.70
2022-11-05T02:05:12.588Z,5.65
2022-11-05T02:07:43.589Z,6.00
2022-11-05T02:10:14.963Z,6.25
2022-11-05T02:12:46.726Z,5.35
2022-11-05T02:15:17.442Z,6.13
2022-11-05T02:17:53.893Z,5.90
2022-11-05T02:20:32.750Z,5.80
2022-11-05T02:23:45.931Z,5.95
2022-11-05T02:27:10.544Z,6.43
2022-11-05T02:30:08.320Z,6.88
2022-11-05T02:32:59.534Z,6.78
2022-11-05T02:35:38.767Z,6.55
2022-11-05T02:38:10.247Z,6.95
2022-11-05T02:40:51.028Z,6.95
2022-11-05T02:43:29.756Z,6.55
2022-11-05T02:46:03.247Z,6.93
2022-11-05T02:48:41.806Z,6.53
2022-11-05T02:51:17.372Z,6.55
2022-11-05T02:53:50.928Z,6.80
2022-11-05T02:56:23.479Z,7.28
2022-11-05T02:58:51.418Z,7.00
2022-11-05T03:01:19.499Z,6.65
2022-11-05T03:03:52.605Z,6.10
2022-11-05T03:06:43.128Z,6.38
2022-11-05T03:09:28.969Z,6.30
2022-11-05T03:12:07.520Z,5.82
2022-11-05T03:14:42.997Z,6.90
2022-11-05T03:17:19.219Z,5.85
2022-11-05T03:19:51.008Z,5.93
2022-11-05T03:22:25.416Z,5.78
2022-11-05T03:24:59.162Z,5.38
2022-11-05T03:27:31.192Z,5.68
2022-11-05T03:30:03.261Z,5.75
2022-11-05T03:32:34.959Z,6.20
2022-11-05T03:35:09.136Z,5.60
2022-11-05T03:37:41.604Z,5.63
2022-11-05T03:40:12.978Z,6.07
2022-11-05T03:42:47.358Z,5.20
2022-11-05T03:45:20.718Z,5.55
2022-11-05T03:50:24.943Z,5.28
2022-11-05T03:52:54.957Z,5.13
2022-11-05T03:55:33.576Z,5.07
2022-11-05T03:58:04.013Z,5.82
2022-11-05T04:00:32.175Z,6.60
2022-11-05T04:03:00.033Z,5.50
2022-11-05T04:05:29.494Z,6.10
2022-11-05T04:08:14.774Z,5.88
2022-11-05T04:11:00.015Z,5.60
2022-11-05T04:13:28.227Z,5.40
2022-11-05T04:16:14.542Z,5.28
2022-11-05T04:18:43.256Z,5.78
2022-11-05T04:21:30.108Z,5.07
2022-11-05T04:24:10.018Z,5.20
2022-11-05T04:26:39.065Z,5.22
2022-11-05T04:29:24.879Z,4.68
2022-11-05T04:31:53.100Z,5.65
2022-11-05T04:34:22.067Z,5.63
2022-11-05T04:36:52.315Z,4.97
2022-11-05T04:39:21.350Z,4.55
2022-11-05T04:41:49.571Z,4.57
2022-11-05T04:44:17.743Z,4.78
2022-11-05T04:46:45.633Z,4.57
2022-11-05T04:49:13.477Z,4.15
2022-11-05T04:51:41.349Z,4.38
2022-11-05T04:54:10.594Z,4.78
2022-11-05T04:56:38.427Z,4.43
2022-11-05T04:59:06.279Z,4.45
2022-11-05T05:01:34.151Z,4.53
2022-11-05T05:04:02.038Z,4.72
2022-11-05T05:06:29.849Z,3.65
2022-11-05T05:08:57.771Z,4.72
2022-11-05T05:11:27.162Z,4.63
2022-11-05T05:13:54.979Z,5.03
2022-11-05T05:16:25.594Z,4.90
2022-11-05T05:18:54.239Z,4.30
2022-11-05T05:21:41.108Z,4.55
2022-11-05T05:24:10.540Z,3.97
2022-11-05T05:26:42.015Z,4.32
2022-11-05T05:29:10.834Z,4.40
2022-11-05T05:31:39.067Z,4.55
2022-11-05T05:34:08.712Z,5.60
2022-11-05T05:36:36.511Z,4.47
2022-11-05T05:39:06.698Z,4.50
2022-11-05T05:41:34.878Z,4.32
2022-11-05T05:44:06.003Z,4.30
2022-11-05T05:46:33.858Z,4.68
2022-11-05T05:49:01.779Z,4.03
2022-11-05T05:51:29.639Z,4.50
2022-11-05T05:53:58.514Z,3.83
2022-11-05T05:56:26.571Z,4.38
2022-11-05T05:58:54.772Z,4.15
2022-11-05T06:01:24.274Z,4.10
2022-11-05T06:03:52.391Z,3.80
2022-11-05T06:06:21.157Z,3.35
2022-11-05T06:08:49.987Z,4.80
2022-11-05T06:11:17.947Z,4.45
2022-11-05T06:13:45.795Z,3.75
2022-11-05T06:16:13.689Z,5.13
2022-11-05T06:18:43.301Z,4.05
2022-11-05T06:21:13.135Z,4.00
2022-11-05T06:23:42.749Z,3.78
2022-11-05T06:26:12.719Z,4.72
2022-11-05T06:28:42.088Z,3.88
2022-11-05T06:31:10.246Z,3.60
2022-11-05T06:33:38.399Z,3.90
2022-11-05T06:36:09.861Z,4.38
2022-11-05T06:38:38.148Z,4.03
2022-11-05T06:41:10.283Z,3.40
2022-11-05T06:43:38.936Z,3.60
2022-11-05T06:46:07.482Z,3.63
2022-11-05T06:48:35.609Z,3.47
2022-11-05T06:51:03.682Z,3.47
2022-11-05T06:53:33.377Z,3.72
2022-11-05T06:56:03.429Z,3.95
2022-11-05T06:58:32.084Z,3.58
2022-11-05T07:01:03.606Z,3.55
2022-11-05T07:03:31.886Z,3.45
2022-11-05T07:06:01.385Z,3.15
2022-11-05T07:08:33.461Z,3.70
2022-11-05T07:11:01.364Z,3.50
2022-11-05T07:13:29.245Z,3.15
2022-11-05T07:15:57.230Z,3.15
2022-11-05T07:18:25.211Z,3.92
2022-11-05T07:20:53.104Z,3.88
2022-11-05T07:23:20.991Z,3.63
2022-11-05T07:25:50.670Z,3.85
2022-11-05T07:28:18.997Z,3.88
2022-11-05T07:30:48.184Z,3.95
2022-11-05T07:33:16.045Z,3.53
2022-11-05T07:35:44.012Z,5.30
2022-11-05T07:38:12.066Z,4.55
2022-11-05T07:40:39.925Z,4.32
2022-11-05T07:43:09.492Z,3.97
2022-11-05T07:45:37.532Z,3.97
2022-11-05T07:48:06.100Z,4.05
2022-11-05T07:50:35.799Z,4.00
2022-11-05T07:53:05.617Z,4.10
2022-11-05T07:55:34.221Z,4.03
2022-11-05T07:58:02.041Z,4.57
2022-11-05T08:00:32.044Z,4.15
2022-11-05T08:03:08.223Z,3.80
2022-11-05T08:05:38.089Z,3.88
2022-11-05T08:08:07.274Z,4.45
2022-11-05T08:10:35.928Z,4.63
2022-11-05T08:13:04.465Z,4.40
2022-11-05T08:15:34.143Z,4.00
2022-11-05T08:18:03.287Z,4.72
2022-11-05T08:20:32.103Z,3.97
2022-11-05T08:23:00.152Z,4.53
2022-11-05T08:25:28.133Z,4.45
2022-11-05T08:27:57.590Z,4.68
2022-11-05T08:30:26.139Z,4.05
2022-11-05T08:33:02.469Z,4.03
2022-11-05T08:35:30.836Z,4.57
2022-11-05T08:37:59.251Z,4.60
2022-11-05T08:40:27.833Z,4.28
2022-11-05T08:42:58.083Z,3.85
2022-11-05T08:45:26.070Z,4.00
2022-11-05T08:48:01.334Z,4.30
2022-11-05T08:50:29.667Z,4.53
2022-11-05T08:52:57.644Z,4.50
2022-11-05T08:55:28.356Z,4.28
2022-11-05T08:57:57.332Z,4.20
2022-11-05T09:00:25.409Z,3.72
2022-11-05T09:02:53.348Z,3.72
2022-11-05T09:05:22.785Z,3.47
2022-11-05T09:07:51.623Z,3.88
2022-11-05T09:10:24.810Z,4.70
2022-11-05T09:12:52.657Z,3.90
2022-11-05T09:15:20.503Z,4.00
2022-11-05T09:17:48.348Z,3.58
2022-11-05T09:20:16.183Z,4.32
2022-11-05T09:22:46.252Z,3.92
2022-11-05T09:25:15.248Z,4.65
2022-11-05T09:27:43.199Z,3.80
2022-11-05T09:30:12.589Z,3.22
2022-11-05T09:32:40.632Z,3.80
2022-11-05T09:35:09.525Z,2.95
2022-11-05T09:37:38.384Z,3.63
2022-11-05T09:40:09.007Z,3.55
2022-11-05T09:42:41.849Z,3.13
2022-11-05T09:45:14.628Z,3.17
2022-11-05T09:47:48.216Z,3.15
2022-11-05T09:50:19.861Z,3.33
2022-11-05T09:52:47.845Z,3.22
2022-11-05T09:55:22.194Z,3.30
2022-11-05T09:57:53.775Z,3.22
2022-11-05T10:00:21.810Z,3.42
2022-11-05T10:02:53.168Z,2.72
2022-11-05T10:05:23.353Z,2.45
2022-11-05T10:07:54.641Z,2.47
2022-11-05T10:10:36.438Z,2.10
2022-11-05T10:13:14.678Z,2.42
2022-11-05T10:15:52.030Z,2.33
2022-11-05T10:18:26.047Z,2.72
2022-11-05T10:20:53.876Z,2.72
2022-11-05T10:23:23.497Z,2.90
2022-11-05T10:25:57.096Z,3.05
2022-11-05T10:28:26.991Z,2.10
2022-11-05T10:30:59.447Z,3.20
2022-11-05T10:33:33.215Z,2.08
2022-11-05T10:36:05.419Z,2.42
2022-11-05T10:38:34.021Z,2.42
2022-11-05T10:41:15.128Z,2.10
2022-11-05T10:43:48.541Z,2.05
2022-11-05T10:49:11.572Z,2.05
2022-11-05T10:51:40.162Z,2.50
2022-11-05T10:54:19.050Z,2.20
2022-11-05T10:56:48.578Z,2.30
2022-11-05T10:59:24.850Z,2.40
2022-11-05T11:02:02.144Z,2.55
2022-11-05T11:04:37.440Z,2.13
2022-11-05T11:07:06.496Z,2.13
2022-11-05T11:09:37.254Z,2.33
2022-11-05T11:12:14.287Z,2.05
2022-11-05T11:14:42.116Z,2.03
2022-11-05T11:17:27.843Z,2.10
2022-11-05T11:20:20.863Z,1.92
2022-11-05T11:23:11.630Z,2.27
2022-11-05T11:25:48.077Z,1.80
2022-11-05T11:28:22.912Z,1.65
2022-11-05T11:30:55.085Z,2.08
2022-11-05T11:33:28.215Z,2.03
2022-11-05T11:35:56.519Z,2.28
2022-11-05T11:38:26.266Z,2.08
2022-11-05T11:41:02.267Z,2.13
2022-11-05T11:43:37.078Z,1.90
2022-11-05T11:46:09.878Z,2.88
2022-11-05T11:48:41.821Z,1.80
2022-11-05T11:51:29.779Z,1.83
2022-11-05T11:53:58.774Z,1.80
2022-11-05T11:56:27.500Z,2.60
2022-11-05T11:58:58.361Z,1.40
2022-11-05T12:01:55.133Z,1.48
2022-11-05T12:04:38.490Z,1.60
2022-11-05T12:07:18.735Z,1.90
2022-11-05T12:10:04.284Z,1.90
2022-11-05T12:12:41.740Z,1.70
2022-11-05T12:15:28.718Z,1.33
2022-11-05T12:18:01.549Z,2.10
2022-11-05T12:20:58.320Z,1.42
2022-11-05T12:23:58.518Z,1.75
2022-11-05T12:26:39.671Z,1.52
2022-11-05T12:29:34.555Z,1.58
2022-11-05T12:32:28.815Z,1.58
2022-11-05T12:35:05.681Z,1.30
2022-11-05T12:37:38.490Z,1.52
2022-11-05T12:40:21.781Z,1.48
2022-11-05T12:43:10.548Z,1.65
2022-11-05T12:45:46.788Z,1.75
2022-11-05T12:48:35.803Z,1.20
2022-11-05T12:51:17.412Z,1.90
2022-11-05T12:53:58.707Z,1.30
2022-11-05T12:56:33.183Z,1.55
2022-11-05T12:59:07.322Z,1.52
2022-11-05T13:01:37.966Z,1.63
2022-11-05T13:04:16.128Z,1.90
2022-11-05T13:06:49.534Z,1.63
2022-11-05T13:09:21.004Z,1.65
2022-11-05T13:11:53.733Z,1.98
2022-11-05T13:14:26.642Z,1.60
2022-11-05T13:16:59.872Z,0.90
2022-11-05T13:19:34.450Z,1.25
2022-11-05T13:22:09.748Z,1.17
2022-11-05T13:24:43.335Z,2.47
2022-11-05T13:27:30.197Z,1.58
2022-11-05T13:30:04.044Z,1.52
2022-11-05T13:32:36.383Z,1.60
2022-11-05T13:35:08.765Z,1.30
2022-11-05T13:37:58.559Z,1.30
2022-11-05T13:40:39.055Z,1.50
2022-11-05T13:43:22.879Z,1.75
2022-11-05T13:46:06.230Z,2.03
2022-11-05T13:51:47.403Z,1.50
2022-11-05T13:54:51.195Z,1.42
2022-11-05T13:57:34.645Z,1.80
2022-11-05T14:00:12.504Z,2.38
2022-11-05T14:02:45.246Z,1.95
2022-11-05T14:05:24.948Z,1.80
2022-11-05T14:07:55.615Z,1.42
2022-11-05T14:10:32.464Z,1.70
2022-11-05T14:13:06.391Z,1.40
2022-11-05T14:15:34.442Z,1.83
2022-11-05T14:18:04.110Z,1.38
2022-11-05T14:20:47.838Z,1.58
2022-11-05T14:23:39.403Z,1.60
2022-11-05T14:26:19.471Z,1.83
2022-11-05T14:28:49.964Z,1.60
2022-11-05T14:34:55.451Z,1.23
2022-11-05T14:37:42.109Z,1.40
2022-11-05T14:40:36.249Z,3.70
2022-11-05T14:45:36.203Z,1.50
2022-11-05T14:48:06.675Z,1.40
2022-11-05T14:50:40.212Z,1.33
2022-11-05T14:53:13.497Z,1.58
2022-11-05T14:55:44.709Z,1.88
2022-11-05T14:58:33.741Z,1.63
2022-11-05T15:01:04.113Z,1.70
2022-11-05T15:04:00.794Z,1.75
2022-11-05T15:06:35.210Z,1.50
2022-11-05T15:09:18.326Z,1.95
2022-11-05T15:12:09.154Z,1.48
2022-11-05T15:14:43.364Z,1.40
2022-11-05T15:17:25.626Z,1.85
2022-11-05T15:19:54.285Z,1.42
2022-11-05T15:22:29.209Z,1.80
2022-11-05T15:24:57.494Z,1.85
2022-11-05T15:27:44.341Z,1.67
2022-11-05T15:30:16.606Z,1.50
2022-11-05T15:32:44.638Z,1.50
2022-11-05T15:35:21.242Z,2.33
2022-11-05T15:37:55.936Z,2.08
2022-11-05T15:40:29.437Z,1.58
2022-11-05T15:43:16.391Z,1.52
2022-11-05T15:45:44.452Z,1.70
2022-11-05T15:48:16.435Z,2.13
2022-11-05T15:50:44.408Z,1.88
2022-11-05T15:53:44.166Z,2.15
2022-11-05T15:56:15.538Z,1.95
2022-11-05T15:58:48.912Z,2.45
2022-11-05T16:03:49.684Z,2.13
2022-11-05T16:06:17.814Z,1.88
2022-11-05T16:08:49.378Z,2.08
2022-11-05T16:11:25.472Z,1.80
2022-11-05T16:14:13.433Z,1.80
2022-11-05T16:16:41.559Z,1.70
2022-11-05T16:19:40.550Z,2.17
2022-11-05T16:22:09.150Z,2.03
2022-11-05T16:24:37.228Z,2.03
2022-11-05T16:27:06.226Z,2.60
2022-11-05T16:29:37.648Z,2.22
2022-11-05T16:32:07.507Z,2.50
2022-11-05T16:34:39.133Z,2.15
2022-11-05T16:37:09.144Z,2.63
2022-11-05T16:39:37.183Z,2.42
2022-11-05T16:42:38.108Z,2.88
2022-11-05T16:45:09.432Z,2.50
2022-11-05T16:47:37.568Z,2.88
2022-11-05T16:50:16.022Z,2.47
2022-11-05T16:52:45.862Z,2.65
2022-11-05T16:55:15.024Z,2.60
2022-11-05T16:57:44.338Z,2.90
2022-11-05T17:00:16.274Z,3.17
2022-11-05T17:02:45.223Z,2.65
2022-11-05T17:05:19.229Z,2.60
2022-11-05T17:07:47.383Z,2.75
2022-11-05T17:10:15.531Z,2.55
2022-11-05T17:12:43.849Z,2.22
2022-11-05T17:15:24.247Z,2.90
2022-11-05T17:17:56.226Z,2.42
2022-11-05T17:20:30.692Z,2.58
2022-11-05T17:23:02.350Z,2.83
2022-11-05T17:25:30.331Z,3.10
2022-11-05T17:27:59.048Z,2.60
2022-11-05T17:30:28.604Z,2.78
2022-11-05T17:32:56.719Z,2.70
2022-11-05T17:35:25.001Z,2.67
2022-11-05T17:37:52.929Z,2.80
2022-11-05T17:40:23.279Z,2.60
2022-11-05T17:42:52.637Z,2.55
2022-11-05T17:45:20.567Z,2.70
2022-11-05T17:47:49.917Z,3.25
2022-11-05T17:50:20.254Z,3.63
2022-11-05T17:52:48.380Z,3.60
2022-11-05T17:55:19.219Z,4.22
2022-11-05T17:57:49.265Z,3.97
2022-11-05T18:00:19.400Z,3.42
2022-11-05T18:02:49.801Z,3.72
2022-11-05T18:05:18.639Z,4.05
2022-11-05T18:07:47.538Z,4.18
2022-11-05T18:10:16.036Z,3.83
2022-11-05T18:12:44.778Z,4.40
2022-11-05T18:15:13.486Z,3.83
2022-11-05T18:17:41.656Z,4.43
2022-11-05T18:20:18.418Z,4.00
2022-11-05T18:22:48.999Z,3.92
2022-11-05T18:25:17.305Z,3.40
2022-11-05T18:27:45.394Z,3.80
2022-11-05T18:30:15.500Z,3.65
2022-11-05T18:32:44.022Z,3.97
2022-11-05T18:35:14.573Z,3.63
2022-11-05T18:37:42.758Z,3.25
2022-11-05T18:40:11.660Z,3.88
2022-11-05T18:42:39.851Z,3.50
2022-11-05T18:45:09.011Z,3.83
2022-11-05T18:47:36.946Z,2.85
2022-11-05T18:50:06.806Z,2.63
2022-11-05T18:52:36.074Z,3.40
2022-11-05T18:55:03.995Z,3.40
2022-11-05T18:57:34.181Z,3.55
2022-11-05T19:00:02.193Z,2.97
2022-11-05T19:02:30.272Z,3.45
2022-11-05T19:07:47.623Z,3.80
2022-11-05T19:10:15.645Z,3.75
2022-11-05T19:12:43.458Z,3.40
2022-11-05T19:15:11.802Z,3.63
2022-11-05T19:17:39.690Z,3.67
2022-11-05T19:20:09.543Z,4.13
2022-11-05T19:22:37.413Z,4.30
2022-11-05T19:25:07.929Z,4.63
2022-11-05T19:27:36.663Z,4.75
2022-11-05T19:30:05.298Z,4.13
2022-11-05T19:32:33.184Z,4.28
2022-11-05T19:35:01.010Z,4.05
2022-11-05T19:37:28.962Z,4.15
2022-11-05T19:39:56.873Z,4.53
2022-11-05T19:42:26.111Z,4.90
2022-11-05T19:44:53.958Z,4.50
2022-11-05T19:47:21.787Z,4.72
2022-11-05T19:49:49.729Z,5.47
2022-11-05T19:52:17.623Z,4.70
2022-11-05T19:54:46.007Z,5.20
2022-11-05T19:57:14.269Z,5.10
2022-11-05T19:59:43.694Z,5.22
2022-11-05T20:02:16.305Z,5.95
2022-11-05T20:04:44.676Z,5.88
2022-11-05T20:07:12.643Z,5.53
2022-11-05T20:09:40.559Z,6.30
2022-11-05T20:12:08.544Z,6.53
2022-11-05T20:14:36.602Z,5.80
2022-11-05T20:17:05.874Z,6.18
2022-11-05T20:19:35.098Z,6.10
2022-11-05T20:22:03.389Z,6.32
2022-11-05T20:24:31.396Z,6.78
2022-11-05T20:26:59.264Z,6.82
2022-11-05T20:29:33.923Z,6.82
2022-11-05T20:32:09.414Z,6.10
2022-11-05T20:34:37.302Z,6.70
2022-11-05T20:37:08.518Z,7.20
2022-11-05T20:39:36.462Z,5.80
2022-11-05T20:42:04.512Z,6.28
2022-11-05T20:44:32.367Z,5.93
2022-11-05T20:47:01.291Z,5.88
2022-11-05T20:49:30.589Z,6.32
2022-11-05T20:51:58.479Z,5.80
2022-11-05T20:54:26.363Z,5.88
2022-11-05T20:56:54.718Z,6.20
2022-11-05T20:59:22.824Z,5.60
2022-11-05T21:01:51.947Z,6.97
2022-11-05T21:04:20.126Z,6.10
2022-11-05T21:06:49.406Z,5.47
2022-11-05T21:09:17.237Z,5.72
2022-11-05T21:12:02.607Z,5.60
2022-11-05T21:14:30.449Z,6.20
2022-11-05T21:16:58.307Z,5.95
2022-11-05T21:19:26.178Z,7.22
2022-11-05T21:21:55.415Z,6.20
2022-11-05T21:24:23.238Z,6.10
2022-11-05T21:26:51.316Z,6.07
2022-11-05T21:29:22.041Z,5.10
2022-11-05T21:34:20.952Z,5.45
2022-11-05T21:36:50.276Z,5.13
2022-11-05T21:39:19.530Z,5.00
2022-11-05T21:41:52.462Z,5.68
2022-11-05T21:44:20.404Z,5.38
2022-11-05T21:46:48.238Z,5.00
2022-11-05T21:49:16.078Z,5.85
2022-11-05T21:52:01.116Z,7.57
2022-11-05T21:54:47.982Z,8.80
2022-11-05T21:57:35.473Z,11.43
2022-11-05T22:00:05.817Z,10.07
2022-11-05T22:02:33.754Z,9.63
2022-11-05T22:05:02.627Z,9.52
2022-11-05T22:07:35.371Z,9.13
2022-11-05T22:10:15.649Z,8.05
2022-11-05T22:12:44.481Z,6.85
2022-11-05T22:15:12.894Z,6.63
2022-11-05T22:17:46.231Z,6.03
2022-11-05T22:20:15.271Z,6.47
2022-11-05T22:22:45.388Z,5.68
2022-11-05T22:25:15.699Z,5.05
2022-11-05T22:27:44.227Z,6.05
2022-11-05T22:30:13.679Z,5.38
2022-11-05T22:32:41.644Z,4.88
2022-11-05T22:35:10.380Z,5.47
2022-11-05T22:37:38.208Z,4.75
2022-11-05T22:40:07.082Z,5.80
2022-11-05T22:42:36.401Z,5.50
2022-11-05T22:45:04.715Z,5.47
2022-11-05T22:47:32.546Z,6.47
2022-11-05T22:50:00.439Z,5.20
2022-11-05T22:52:28.320Z,5.35
2022-11-05T22:54:56.150Z,4.95
2022-11-05T22:57:24.035Z,4.93
2022-11-05T22:59:53.270Z,5.63
2022-11-05T23:02:21.251Z,5.25
2022-11-05T23:04:49.881Z,5.05
2022-11-05T23:07:35.382Z,5.65
2022-11-05T23:10:19.953Z,4.65
2022-11-05T23:12:47.923Z,5.30
2022-11-05T23:15:31.045Z,5.10
2022-11-05T23:18:16.304Z,4.47
2022-11-05T23:21:01.318Z,4.63
2022-11-05T23:23:46.853Z,5.55
2022-11-05T23:26:32.189Z,5.40
2022-11-05T23:29:00.090Z,5.07
2022-11-05T23:31:58.384Z,5.15
2022-11-05T23:34:26.433Z,5.25
2022-11-05T23:37:11.855Z,4.95
2022-11-05T23:39:42.449Z,4.97
2022-11-05T23:42:29.073Z,4.38
2022-11-05T23:45:14.723Z,4.07
2022-11-05T23:48:02.209Z,5.13
2022-11-05T23:50:37.078Z,4.80
2022-11-05T23:53:07.605Z,4.80
2022-11-05T23:55:35.697Z,4.68
2022-11-05T23:58:03.565Z,4.47
